Time;durP1;ratioP1;P1;durP2;ratioP2;P2;SDS_P1;SDS_P2;PMS_P1;PMS_P2;Temp;Humidity;BMP_temperature;BMP_pressure;BME280_temperature;BME280_humidity;BME280_pressure;Samples;Min_cycle;Max_cycle;Signal;HPM_P1;HPM_P2
2021/11/14 00:01:04;;;;;;;109.47;50.92;;;;;;;9.00;81.35;100500.31;4995260;28;20042;-68
2021/11/14 00:03:31;;;;;;;112.47;51.17;;;;;;;9.03;81.42;100494.78;4995201;28;20042;-70
2021/11/14 00:05:57;;;;;;;121.75;54.58;;;;;;;8.80;81.69;100497.59;4989243;28;20027;-70
2021/11/14 00:08:23;;;;;;;115.72;51.78;;;;;;;8.79;82.13;100488.00;4992347;28;20053;-70
2021/11/14 00:10:52;;;;;;;115.13;52.92;;;;;;;9.04;81.62;100496.44;4986645;28;20109;-68
2021/11/14 00:13:18;;;;;;;114.35;52.47;;;;;;;9.04;81.47;100491.16;4992377;28;20028;-67
2021/11/14 00:15:44;;;;;;;118.82;51.78;;;;;;;9.13;81.20;100495.63;4994095;28;20201;-70
2021/11/14 00:18:10;;;;;;;123.18;54.85;;;;;;;9.10;80.91;100496.75;4993992;28;20031;-68
2021/11/14 00:20:37;;;;;;;126.45;55.63;;;;;;;9.22;80.61;100494.84;4995167;28;20105;-70
2021/11/14 00:23:03;;;;;;;153.35;62.75;;;;;;;9.02;81.35;100490.47;4991092;28;20050;-67
2021/11/14 00:25:29;;;;;;;152.15;62.20;;;;;;;9.14;81.15;100492.88;4993686;28;20049;-67
2021/11/14 00:27:55;;;;;;;179.63;66.43;;;;;;;9.15;80.95;100488.41;4994186;28;20042;-70
2021/11/14 00:30:21;;;;;;;126.82;56.35;;;;;;;9.27;80.12;100504.03;4991203;28;20058;-70
2021/11/14 00:32:51;;;;;;;126.28;54.28;;;;;;;9.19;80.56;100497.75;4990617;28;20031;-67
2021/11/14 00:35:16;;;;;;;139.25;56.90;;;;;;;8.89;81.64;100486.25;4989433;28;20101;-68
2021/11/14 00:37:42;;;;;;;118.25;55.10;;;;;;;9.04;81.58;100499.09;4996537;28;20058;-70
2021/11/14 00:40:11;;;;;;;118.85;54.35;;;;;;;8.85;82.44;100499.84;4992914;28;20456;-69
2021/11/14 00:42:37;;;;;;;118.50;53.40;;;;;;;9.02;82.04;100501.88;4994769;28;20034;-68
2021/11/14 00:45:03;;;;;;;114.57;52.25;;;;;;;9.06;81.64;100505.91;4994534;28;20042;-70
2021/11/14 00:47:28;;;;;;;118.25;52.85;;;;;;;9.15;81.13;100504.28;4989816;28;20034;-70
2021/11/14 00:49:54;;;;;;;114.38;51.15;;;;;;;9.12;81.42;100497.44;4989204;28;20319;-68
2021/11/14 00:52:19;;;;;;;121.60;52.80;;;;;;;9.04;81.28;100504.38;4994476;28;20094;-68
2021/11/14 00:54:45;;;;;;;122.50;53.08;;;;;;;8.94;82.43;100501.69;4992855;28;20018;-71
2021/11/14 00:57:10;;;;;;;129.85;54.83;;;;;;;8.79;82.58;100505.66;5001156;28;20133;-70
2021/11/14 00:59:36;;;;;;;119.35;52.95;;;;;;;8.82;82.95;100495.66;4987396;28;20086;-71
2021/11/14 01:02:01;;;;;;;116.68;51.50;;;;;;;9.01;82.49;100494.91;4994166;28;20375;-70
2021/11/14 01:04:27;;;;;;;115.25;50.83;;;;;;;9.18;81.77;100496.06;4988276;28;20585;-68
2021/11/14 01:06:52;;;;;;;116.53;50.13;;;;;;;9.03;82.47;100482.41;4994678;28;20162;-68
2021/11/14 01:09:18;;;;;;;131.45;53.85;;;;;;;9.11;82.03;100487.84;4993386;28;20060;-70
2021/11/14 01:11:43;;;;;;;120.53;51.33;;;;;;;9.17;81.94;100484.66;4993807;28;20244;-68
2021/11/14 01:14:09;;;;;;;112.93;49.67;;;;;;;9.10;81.59;100480.06;4990215;28;20336;-68
2021/11/14 01:16:35;;;;;;;115.32;51.20;;;;;;;9.25;81.05;100494.56;4993853;28;20042;-68
2021/11/14 01:19:01;;;;;;;119.20;51.80;;;;;;;9.21;81.12;100478.13;4992977;28;20110;-70
2021/11/14 01:21:27;;;;;;;117.30;51.70;;;;;;;9.31;80.70;100485.25;4992698;28;20090;-68
2021/11/14 01:23:55;;;;;;;130.48;55.35;;;;;;;9.22;80.98;100492.19;4989163;28;20058;-67
2021/11/14 01:26:21;;;;;;;140.25;54.85;;;;;;;9.16;81.28;100490.09;4987481;28;20038;-67
2021/11/14 01:28:47;;;;;;;142.50;56.60;;;;;;;9.31;80.48;100488.72;4990189;28;20352;-69
2021/11/14 01:31:13;;;;;;;118.78;51.65;;;;;;;9.37;80.50;100487.38;4986415;28;20045;-70
2021/11/14 01:33:39;;;;;;;110.05;48.78;;;;;;;9.35;80.53;100484.00;4995501;28;20030;-71
2021/11/14 01:36:04;;;;;;;117.90;50.97;;;;;;;9.31;81.12;100490.53;4990294;28;20026;-71
2021/11/14 01:38:31;;;;;;;105.88;48.22;;;;;;;9.33;80.26;100478.03;4993177;28;20090;-68
2021/11/14 01:40:59;;;;;;;105.70;49.90;;;;;;;9.38;79.94;100489.91;4992141;28;20038;-67
2021/11/14 01:43:38;;;;;;;108.22;47.15;;;;;;;9.40;80.65;100493.22;4991995;28;20046;-70
2021/11/14 01:46:04;;;;;;;105.15;49.17;;;;;;;9.34;80.90;100493.75;4985008;28;20285;-70
2021/11/14 01:48:31;;;;;;;101.85;48.80;;;;;;;9.39;80.66;100494.22;4994045;28;20069;-68
2021/11/14 01:50:56;;;;;;;103.47;46.58;;;;;;;9.57;79.55;100486.44;4987094;28;20297;-70
2021/11/14 01:53:24;;;;;;;99.40;47.00;;;;;;;9.45;80.13;100491.00;4994879;28;20061;-68
2021/11/14 01:55:50;;;;;;;100.70;47.42;;;;;;;9.41;80.46;100489.63;4988183;28;20062;-68
2021/11/14 01:58:20;;;;;;;95.63;45.78;;;;;;;9.44;80.17;100484.06;4990664;28;20076;-71
2021/11/14 02:00:54;;;;;;;100.43;46.88;;;;;;;9.41;80.17;100488.78;4989823;28;20035;-70
2021/11/14 02:03:21;;;;;;;104.32;46.33;;;;;;;9.47;79.81;100488.25;4985175;28;20034;-70
2021/11/14 02:05:47;;;;;;;99.50;47.10;;;;;;;9.34;80.92;100482.34;4992150;28;20075;-70
2021/11/14 02:08:13;;;;;;;98.50;44.63;;;;;;;9.33;81.34;100480.66;4986166;28;20047;-70
2021/11/14 02:10:41;;;;;;;93.75;44.15;;;;;;;9.34;80.79;100482.34;4993786;28;20046;-68
2021/11/14 02:13:07;;;;;;;102.60;48.72;;;;;;;9.36;80.35;100483.88;4990421;28;20042;-68
2021/11/14 02:15:32;;;;;;;98.75;47.55;;;;;;;9.32;80.48;100473.72;4993125;28;20045;-71
2021/11/14 02:17:58;;;;;;;100.15;48.22;;;;;;;9.36;80.38;100470.66;4992657;28;20057;-70
2021/11/14 02:20:24;;;;;;;95.32;47.15;;;;;;;9.53;79.59;100475.31;4991390;28;20113;-70
2021/11/14 02:22:51;;;;;;;96.40;46.25;;;;;;;9.45;79.95;100474.31;4991374;28;20387;-67
2021/11/14 02:25:19;;;;;;;100.70;46.97;;;;;;;9.24;80.87;100477.88;4990670;28;20033;-67
2021/11/14 02:27:49;;;;;;;106.47;48.15;;;;;;;9.08;81.41;100472.25;4992223;28;20042;-68
2021/11/14 02:30:16;;;;;;;96.30;45.22;;;;;;;9.16;81.16;100477.72;4990884;28;20022;-67
2021/11/14 02:32:42;;;;;;;108.82;46.85;;;;;;;9.07;81.61;100478.53;4991371;28;20263;-70
2021/11/14 02:35:08;;;;;;;101.85;45.97;;;;;;;9.13;81.52;100480.63;4993636;28;20341;-71
2021/11/14 02:37:35;;;;;;;100.78;46.72;;;;;;;9.00;82.04;100471.25;4987398;28;20064;-70
2021/11/14 02:40:02;;;;;;;98.30;46.50;;;;;;;9.08;82.10;100476.72;4994491;28;20053;-68
2021/11/14 02:42:28;;;;;;;100.30;47.95;;;;;;;9.03;82.40;100476.28;4985754;28;20261;-67
2021/11/14 02:44:53;;;;;;;100.90;46.92;;;;;;;9.12;81.69;100480.75;4993316;28;20061;-67
2021/11/14 02:47:19;;;;;;;98.32;46.78;;;;;;;8.95;82.69;100476.94;4985431;28;20050;-70
2021/11/14 02:49:45;;;;;;;97.97;45.45;;;;;;;9.01;82.47;100472.94;4989184;28;20022;-67
2021/11/14 02:52:11;;;;;;;101.28;46.78;;;;;;;9.06;81.98;100470.72;4990651;28;20225;-67
2021/11/14 02:54:37;;;;;;;102.57;46.42;;;;;;;8.94;82.34;100477.91;4988592;28;20037;-67
2021/11/14 02:57:03;;;;;;;100.60;44.80;;;;;;;8.94;82.69;100477.91;4989504;28;20026;-69
2021/11/14 02:59:30;;;;;;;99.47;44.65;;;;;;;8.69;83.45;100476.56;4988762;28;20378;-71
2021/11/14 03:01:55;;;;;;;99.68;43.92;;;;;;;8.85;82.80;100470.81;4990657;28;20046;-70
2021/11/14 03:04:25;;;;;;;98.47;48.22;;;;;;;8.80;83.08;100473.00;4993133;28;20078;-68
2021/11/14 03:06:53;;;;;;;94.68;45.58;;;;;;;8.67;84.02;100470.59;4985820;28;20367;-71
2021/11/14 03:09:19;;;;;;;102.40;46.78;;;;;;;8.77;84.03;100479.38;4990357;28;20046;-69
2021/11/14 03:11:45;;;;;;;103.00;46.85;;;;;;;8.84;83.15;100482.31;4985128;28;20035;-67
2021/11/14 03:14:11;;;;;;;104.65;48.10;;;;;;;8.72;83.61;100486.03;4990731;28;20030;-70
2021/11/14 03:16:38;;;;;;;97.75;46.33;;;;;;;8.78;83.81;100477.59;4989307;28;20320;-67
2021/11/14 03:19:04;;;;;;;109.78;51.30;;;;;;;8.66;84.69;100476.00;4993912;28;20379;-70
2021/11/14 03:21:30;;;;;;;101.10;49.80;;;;;;;8.71;83.71;100482.56;4985434;28;20155;-71
2021/11/14 03:23:57;;;;;;;104.40;48.17;;;;;;;8.65;84.49;100475.16;4996361;28;20295;-70
2021/11/14 03:26:23;;;;;;;107.68;48.08;;;;;;;8.88;83.42;100475.81;4992161;28;20050;-70
2021/11/14 03:28:49;;;;;;;100.90;47.47;;;;;;;8.87;83.47;100477.63;4993987;28;20046;-68
2021/11/14 03:31:14;;;;;;;109.60;48.45;;;;;;;8.83;83.11;100464.81;4993475;28;20105;-67
2021/11/14 03:33:40;;;;;;;94.55;45.72;;;;;;;8.87;83.37;100472.34;4990501;28;20038;-68
2021/11/14 03:36:12;;;;;;;98.53;46.40;;;;;;;8.94;83.50;100473.47;4995300;28;20089;-67
2021/11/14 03:38:50;;;;;;;91.53;45.20;;;;;;;8.86;83.40;100469.81;4990195;28;20046;-67
2021/11/14 03:41:24;;;;;;;100.20;45.47;;;;;;;9.02;82.88;100469.31;4991542;28;20105;-70
2021/11/14 03:43:51;;;;;;;99.63;46.00;;;;;;;9.05;82.77;100471.69;4994065;28;20042;-68
2021/11/14 03:46:17;;;;;;;96.00;43.75;;;;;;;9.06;82.13;100455.72;4986659;28;20043;-68
2021/11/14 03:48:47;;;;;;;99.53;44.72;;;;;;;9.10;82.47;100466.84;4992772;28;20042;-68
2021/11/14 03:51:13;;;;;;;97.15;44.03;;;;;;;9.13;81.96;100470.06;4990268;28;20094;-67
2021/11/14 03:53:39;;;;;;;102.68;45.63;;;;;;;9.04;82.60;100465.56;4991188;28;20050;-70
2021/11/14 03:56:06;;;;;;;95.80;43.80;;;;;;;9.18;81.46;100472.28;4994662;28;20054;-68
2021/11/14 03:58:32;;;;;;;101.22;45.22;;;;;;;9.13;81.63;100470.06;4991492;28;20074;-70
2021/11/14 04:00:59;;;;;;;107.93;47.35;;;;;;;8.91;83.14;100473.75;4992613;28;20038;-68
2021/11/14 04:03:27;;;;;;;100.18;45.17;;;;;;;9.10;82.23;100467.69;4994829;28;20038;-68
2021/11/14 04:05:52;;;;;;;102.00;44.47;;;;;;;9.11;82.16;100466.72;4988558;28;20046;-71
2021/11/14 04:08:21;;;;;;;93.45;42.53;;;;;;;9.17;82.07;100473.25;4989886;28;20165;-67
2021/11/14 04:10:48;;;;;;;94.90;43.38;;;;;;;9.18;81.76;100469.66;4990799;28;20330;-67
2021/11/14 04:13:15;;;;;;;103.82;47.17;;;;;;;9.17;81.68;100475.91;4990947;28;20370;-67
2021/11/14 04:15:41;;;;;;;95.25;44.92;;;;;;;9.04;82.30;100470.03;4991970;28;20035;-70
2021/11/14 04:18:07;;;;;;;93.70;43.80;;;;;;;9.04;82.18;100467.38;4997181;28;20085;-68
2021/11/14 04:20:34;;;;;;;94.97;44.20;;;;;;;8.95;82.66;100466.38;4993263;28;20066;-68
2021/11/14 04:23:00;;;;;;;88.90;42.33;;;;;;;8.93;82.66;100474.44;4992687;28;20030;-67
2021/11/14 04:25:27;;;;;;;96.68;43.33;;;;;;;8.93;82.83;100476.25;4989334;28;20313;-70
2021/11/14 04:27:54;;;;;;;93.70;45.13;;;;;;;9.06;82.15;100474.22;4991701;28;20053;-67
2021/11/14 04:30:20;;;;;;;90.90;43.38;;;;;;;9.02;81.83;100469.31;4995638;28;20061;-67
2021/11/14 04:32:45;;;;;;;102.13;45.63;;;;;;;9.10;81.68;100472.97;4991204;28;20046;-67
2021/11/14 04:35:11;;;;;;;123.35;49.65;;;;;;;9.09;81.56;100483.66;4991204;28;20034;-67
2021/11/14 04:37:37;;;;;;;102.35;44.70;;;;;;;9.06;81.84;100474.22;4993956;28;20050;-68
2021/11/14 04:40:08;;;;;;;93.35;41.20;;;;;;;9.12;81.04;100481.59;4994831;28;20208;-70
2021/11/14 04:42:35;;;;;;;94.63;42.03;;;;;;;8.92;81.70;100478.06;4992723;28;20275;-70
2021/11/14 04:45:01;;;;;;;88.38;40.50;;;;;;;8.90;81.23;100487.91;4994603;28;20045;-70
2021/11/14 04:47:27;;;;;;;95.13;40.42;;;;;;;8.96;81.20;100476.81;4990737;28;20039;-70
2021/11/14 04:49:52;;;;;;;89.20;38.33;;;;;;;9.07;80.40;100480.31;4995622;28;20193;-70
2021/11/14 04:52:18;;;;;;;90.53;38.78;;;;;;;9.18;79.43;100480.22;4993767;28;20038;-70
2021/11/14 04:54:43;;;;;;;77.30;35.75;;;;;;;9.07;79.69;100486.44;4993956;28;20283;-68
2021/11/14 04:57:09;;;;;;;93.25;38.47;;;;;;;8.74;79.97;100450.59;4993100;28;20395;-70
2021/11/14 04:59:35;;;;;;;80.35;35.42;;;;;;;9.04;79.72;100481.44;4988309;28;20297;-71
2021/11/14 05:02:01;;;;;;;94.30;38.25;;;;;;;9.00;79.61;100484.47;4992099;28;20077;-67
2021/11/14 05:04:26;;;;;;;78.00;35.47;;;;;;;9.06;79.19;100486.56;4992484;28;20403;-67
2021/11/14 05:06:52;;;;;;;78.30;34.30;;;;;;;9.10;79.23;100482.69;4994268;28;20058;-67
2021/11/14 05:09:17;;;;;;;75.05;34.63;;;;;;;8.96;78.68;100454.84;4990944;28;20046;-67
2021/11/14 05:11:43;;;;;;;68.05;31.83;;;;;;;9.21;78.31;100488.72;4994600;28;20049;-70
2021/11/14 05:14:08;;;;;;;75.20;33.40;;;;;;;9.19;78.36;100488.00;4988774;28;20031;-70
2021/11/14 05:16:34;;;;;;;76.82;34.35;;;;;;;9.49;76.51;100492.41;4992946;28;20273;-68
2021/11/14 05:18:59;;;;;;;73.53;32.47;;;;;;;9.32;76.53;100489.56;4991214;28;20205;-68
2021/11/14 05:21:25;;;;;;;71.93;31.38;;;;;;;9.14;77.53;100494.66;4990635;28;20197;-71
2021/11/14 05:23:50;;;;;;;72.82;32.30;;;;;;;9.34;76.69;100496.38;4991447;28;20330;-67
2021/11/14 05:26:16;;;;;;;74.55;31.95;;;;;;;9.25;76.61;100476.06;4989824;28;20038;-67
2021/11/14 05:28:42;;;;;;;75.00;32.25;;;;;;;9.33;76.37;100497.38;4992273;28;20364;-68
2021/11/14 05:31:07;;;;;;;71.82;32.17;;;;;;;9.36;76.46;100504.19;4991077;28;20073;-69
2021/11/14 05:33:32;;;;;;;67.60;30.75;;;;;;;9.34;76.62;100506.97;4994164;28;20054;-67
2021/11/14 05:35:58;;;;;;;64.50;31.33;;;;;;;9.36;76.00;100497.09;4989220;28;20031;-70
2021/11/14 05:38:24;;;;;;;78.28;32.28;;;;;;;9.42;76.18;100501.03;4989275;28;20042;-70
2021/11/14 05:40:50;;;;;;;68.03;30.75;;;;;;;9.38;75.74;100508.41;4992909;28;20243;-70
2021/11/14 05:43:16;;;;;;;72.75;31.50;;;;;;;9.11;76.46;100511.63;4994459;28;20022;-68
2021/11/14 05:45:42;;;;;;;68.55;30.30;;;;;;;9.19;76.52;100511.78;4991630;28;20038;-67
2021/11/14 05:48:08;;;;;;;70.00;30.60;;;;;;;8.92;77.53;100503.63;4995475;28;20038;-68
2021/11/14 05:50:35;;;;;;;73.55;30.92;;;;;;;9.21;76.26;100511.66;4987992;28;20034;-68
2021/11/14 05:53:00;;;;;;;69.95;31.25;;;;;;;9.14;76.65;100502.59;4989956;28;20046;-70
2021/11/14 05:55:26;;;;;;;69.25;33.72;;;;;;;9.14;76.62;100500.78;4987562;28;20030;-69
2021/11/14 05:57:59;;;;;;;69.65;33.05;;;;;;;9.23;75.96;100507.91;4986590;28;20106;-67
2021/11/14 06:00:32;;;;;;;69.90;30.33;;;;;;;9.22;76.05;100508.03;4991054;28;20032;-71
2021/11/14 06:03:05;;;;;;;72.45;32.10;;;;;;;9.21;75.49;100501.09;4993285;28;20059;-70
2021/11/14 06:05:35;;;;;;;63.78;28.95;;;;;;;9.29;76.38;100510.00;4995336;28;20109;-68
2021/11/14 06:08:00;;;;;;;72.97;30.83;;;;;;;9.23;75.74;100512.34;4988250;28;20039;-67
2021/11/14 06:10:26;;;;;;;64.95;31.15;;;;;;;9.25;75.56;100519.19;4988674;28;20351;-68
2021/11/14 06:12:51;;;;;;;69.47;30.73;;;;;;;9.29;75.42;100525.88;4991537;28;20096;-70
2021/11/14 06:15:19;;;;;;;74.35;35.42;;;;;;;9.16;75.49;100527.91;4990159;28;20047;-71
2021/11/14 06:17:45;;;;;;;79.40;32.45;;;;;;;9.23;75.90;100531.69;4991825;28;20056;-70
2021/11/14 06:20:11;;;;;;;73.70;32.05;;;;;;;9.20;75.71;100536.41;4989700;28;20034;-68
2021/11/14 06:22:36;;;;;;;67.22;31.02;;;;;;;9.27;75.53;100540.19;4988852;28;20077;-70
2021/11/14 06:25:02;;;;;;;77.78;33.38;;;;;;;9.35;75.36;100534.22;4988596;28;20039;-70
2021/11/14 06:27:28;;;;;;;65.22;31.40;;;;;;;9.34;75.90;100530.75;4989318;28;20034;-70
2021/11/14 06:29:53;;;;;;;73.13;34.40;;;;;;;9.51;74.39;100537.22;4997990;28;20093;-68
2021/11/14 06:32:19;;;;;;;74.22;33.28;;;;;;;9.45;74.57;100535.97;4992213;28;20275;-68
2021/11/14 06:34:45;;;;;;;70.18;32.00;;;;;;;9.30;74.97;100539.91;4992698;28;20022;-68
2021/11/14 06:37:11;;;;;;;80.15;34.45;;;;;;;9.50;74.20;100533.75;4992442;28;20119;-68
2021/11/14 06:39:38;;;;;;;74.15;32.40;;;;;;;9.43;73.77;100535.25;4993801;28;20046;-67
2021/11/14 06:42:04;;;;;;;69.35;30.13;;;;;;;9.41;73.44;100521.34;4987142;28;20380;-67
2021/11/14 06:44:29;;;;;;;67.03;30.02;;;;;;;9.53;74.12;100537.91;4988896;28;20065;-70
2021/11/14 06:46:55;;;;;;;64.15;29.63;;;;;;;9.61;73.31;100538.06;4991336;28;20054;-70
2021/11/14 06:49:21;;;;;;;70.25;28.45;;;;;;;9.32;74.09;100545.06;4985335;28;20345;-70
2021/11/14 06:51:47;;;;;;;69.68;29.92;;;;;;;9.23;74.64;100539.63;4991880;28;20038;-69
2021/11/14 06:54:12;;;;;;;66.22;29.02;;;;;;;9.35;73.93;100534.22;4987221;28;20033;-71
2021/11/14 06:56:38;;;;;;;71.10;31.25;;;;;;;9.38;74.30;100536.63;4993626;28;20176;-70
2021/11/14 06:59:03;;;;;;;70.18;30.73;;;;;;;9.18;75.25;100541.81;4990464;28;20027;-67
2021/11/14 07:01:29;;;;;;;73.25;31.73;;;;;;;9.29;74.72;100531.16;4990127;28;20038;-68
2021/11/14 07:03:54;;;;;;;71.13;31.20;;;;;;;9.28;74.79;100541.84;4985942;28;20049;-67
2021/11/14 07:06:19;;;;;;;84.25;35.03;;;;;;;9.18;75.04;100536.53;4992792;28;20367;-67
2021/11/14 07:08:45;;;;;;;75.63;32.33;;;;;;;9.26;74.55;100541.16;5008080;28;20072;-70
2021/11/14 07:11:10;;;;;;;82.75;33.97;;;;;;;9.36;74.16;100547.31;4991853;28;20503;-70
2021/11/14 07:13:36;;;;;;;78.82;33.47;;;;;;;9.38;73.55;100534.00;4991121;28;20049;-67
2021/11/14 07:16:01;;;;;;;78.97;36.80;;;;;;;9.26;74.76;100531.41;4989269;28;20416;-68
2021/11/14 07:18:27;;;;;;;78.47;34.20;;;;;;;9.18;75.21;100539.19;4991438;28;20032;-68
2021/11/14 07:20:52;;;;;;;73.22;34.05;;;;;;;9.33;74.51;100539.66;4991634;28;20038;-68
2021/11/14 07:23:18;;;;;;;79.38;32.60;;;;;;;9.22;74.11;100535.31;4988331;28;20039;-68
2021/11/14 07:25:44;;;;;;;74.28;33.15;;;;;;;9.22;74.35;100543.22;4991097;28;20306;-68
2021/11/14 07:28:10;;;;;;;67.78;31.95;;;;;;;9.20;74.22;100539.06;4994839;28;20065;-67
2021/11/14 07:30:36;;;;;;;78.05;33.25;;;;;;;9.22;73.66;100537.09;4988547;28;20042;-67
2021/11/14 07:33:02;;;;;;;69.95;32.13;;;;;;;9.20;73.96;100528.47;4996315;28;20056;-71
2021/11/14 07:35:29;;;;;;;76.18;33.70;;;;;;;9.15;74.41;100542.09;4989747;28;20034;-68
2021/11/14 07:37:55;;;;;;;83.72;35.03;;;;;;;9.43;73.28;100537.91;4999482;28;20312;-70
2021/11/14 07:40:23;;;;;;;77.47;33.88;;;;;;;9.67;71.99;100537.53;4990389;28;20058;-70
2021/11/14 07:42:50;;;;;;;69.57;31.67;;;;;;;9.46;72.62;100534.16;4995742;28;20060;-70
2021/11/14 07:45:17;;;;;;;72.30;32.10;;;;;;;9.73;71.85;100536.16;4991424;28;20053;-71
2021/11/14 07:47:43;;;;;;;65.13;30.30;;;;;;;9.59;72.17;100529.44;4997345;28;20041;-70
2021/11/14 07:50:10;;;;;;;68.47;30.08;;;;;;;9.57;72.85;100520.81;4993252;28;20030;-70
2021/11/14 07:52:36;;;;;;;74.85;31.90;;;;;;;9.90;70.90;100519.59;5008278;28;20042;-70
2021/11/14 07:55:02;;;;;;;64.30;29.77;;;;;;;9.80;71.18;100524.03;4989986;28;20046;-68
2021/11/14 07:57:27;;;;;;;65.28;29.55;;;;;;;9.77;71.21;100526.97;4991983;28;20043;-69
2021/11/14 07:59:53;;;;;;;70.10;29.10;;;;;;;9.75;71.81;100528.91;4997112;28;20049;-70
2021/11/14 08:02:19;;;;;;;66.93;29.92;;;;;;;9.83;71.57;100537.81;4991360;28;20046;-71
2021/11/14 08:04:45;;;;;;;65.47;28.50;;;;;;;9.90;70.24;100538.94;4991158;28;20034;-70
2021/11/14 08:07:10;;;;;;;60.58;29.25;;;;;;;10.06;69.81;100537.56;4987581;28;20205;-70
2021/11/14 08:09:37;;;;;;;64.65;28.95;;;;;;;9.95;69.49;100535.88;4994130;28;20223;-71
2021/11/14 08:12:03;;;;;;;58.72;28.08;;;;;;;10.02;69.98;100539.66;4992205;28;20045;-70
2021/11/14 08:14:28;;;;;;;59.15;26.67;;;;;;;10.04;69.33;100535.06;4994462;28;20038;-70
2021/11/14 08:16:54;;;;;;;61.25;27.27;;;;;;;10.07;69.54;100540.06;4991034;28;20110;-71
2021/11/14 08:19:19;;;;;;;55.70;25.60;;;;;;;9.95;69.57;100537.69;4995051;28;20045;-70
2021/11/14 08:21:45;;;;;;;56.75;26.98;;;;;;;10.00;69.68;100538.13;4994921;28;20042;-68
2021/11/14 08:24:10;;;;;;;52.50;24.85;;;;;;;10.21;68.93;100539.69;4994701;28;20265;-68
2021/11/14 08:26:36;;;;;;;52.50;25.52;;;;;;;10.21;69.04;100533.53;4991161;28;20041;-70
2021/11/14 08:29:02;;;;;;;57.83;27.02;;;;;;;10.27;67.92;100540.94;4992608;28;20046;-67
2021/11/14 08:31:28;;;;;;;61.78;28.88;;;;;;;10.23;69.06;100521.84;4992385;28;20037;-67
2021/11/14 08:33:53;;;;;;;62.55;31.67;;;;;;;10.27;69.68;100532.97;4997277;28;20114;-68
2021/11/14 08:36:19;;;;;;;54.03;27.20;;;;;;;10.28;69.21;100525.88;4992721;28;20042;-70
2021/11/14 08:38:45;;;;;;;53.70;25.50;;;;;;;10.19;68.78;100517.78;4992616;28;20034;-68
2021/11/14 08:41:11;;;;;;;52.85;26.02;;;;;;;9.88;70.12;100529.47;4990148;28;20026;-71
2021/11/14 08:43:39;;;;;;;56.83;26.85;;;;;;;10.41;68.49;100529.09;4991855;28;20110;-71
2021/11/14 08:46:06;;;;;;;61.13;28.25;;;;;;;10.22;69.40;100529.91;4990090;28;20030;-67
2021/11/14 08:48:31;;;;;;;63.50;29.80;;;;;;;10.01;69.47;100526.56;4993246;28;20041;-68
2021/11/14 08:50:57;;;;;;;57.30;26.90;;;;;;;10.06;69.07;100527.81;4991604;28;20030;-71
2021/11/14 08:53:23;;;;;;;57.78;27.10;;;;;;;9.78;70.36;100526.81;4995614;28;20043;-68
2021/11/14 08:55:55;;;;;;;51.53;25.13;;;;;;;9.88;69.93;100527.66;4991381;28;20078;-71
2021/11/14 08:58:20;;;;;;;64.68;28.23;;;;;;;10.17;69.88;100526.81;5009248;28;20057;-71
2021/11/14 09:00:46;;;;;;;55.67;28.80;;;;;;;10.30;68.69;100531.88;5002310;28;20022;-68
2021/11/14 09:03:11;;;;;;;52.35;26.65;;;;;;;10.37;68.66;100519.72;5004344;28;20064;-72
2021/11/14 09:05:37;;;;;;;56.70;24.92;;;;;;;10.44;68.17;100523.50;5003824;28;20026;-67
2021/11/14 09:08:05;;;;;;;49.42;24.00;;;;;;;10.29;68.14;100525.75;5004231;28;20049;-71
2021/11/14 09:10:32;;;;;;;53.35;27.02;;;;;;;10.63;67.30;100522.63;5004220;28;20094;-71
2021/11/14 09:12:57;;;;;;;56.17;27.25;;;;;;;10.51;67.81;100500.78;5003799;28;20110;-68
2021/11/14 09:15:25;;;;;;;46.25;23.25;;;;;;;10.46;68.06;100514.44;5004032;28;20046;-67
2021/11/14 09:17:51;;;;;;;47.70;22.15;;;;;;;10.53;67.90;100510.25;5002900;28;20039;-70
2021/11/14 09:20:16;;;;;;;46.90;21.42;;;;;;;10.60;67.56;100514.97;5003669;28;20029;-71
2021/11/14 09:22:42;;;;;;;52.40;24.88;;;;;;;10.79;67.34;100509.63;5004198;28;20044;-67
2021/11/14 09:25:09;;;;;;;50.85;24.90;;;;;;;10.93;66.25;100513.63;5003950;28;20320;-67
2021/11/14 09:27:35;;;;;;;51.38;25.10;;;;;;;10.71;67.10;100515.63;5003525;28;20075;-68
2021/11/14 09:30:01;;;;;;;49.80;24.08;;;;;;;11.00;65.93;100512.06;5003575;28;20213;-68
2021/11/14 09:32:27;;;;;;;51.50;24.42;;;;;;;10.73;67.22;100499.59;5003780;28;20065;-68
2021/11/14 09:34:53;;;;;;;59.08;25.90;;;;;;;10.74;67.42;100507.41;5002292;28;20059;-71
2021/11/14 09:37:19;;;;;;;55.70;25.33;;;;;;;10.53;67.76;100512.06;5003783;28;20046;-68
2021/11/14 09:39:44;;;;;;;62.15;26.73;;;;;;;10.80;66.75;100490.94;5003545;28;20030;-71
2021/11/14 09:42:12;;;;;;;56.28;27.17;;;;;;;10.95;66.38;100493.09;5001529;28;20030;-71
2021/11/14 09:44:37;;;;;;;53.00;26.33;;;;;;;10.56;67.34;100461.47;5002222;28;20041;-69
2021/11/14 09:47:03;;;;;;;58.60;26.98;;;;;;;10.90;66.34;100493.53;5002537;28;20048;-71
2021/11/14 09:49:32;;;;;;;55.25;27.70;;;;;;;10.92;66.14;100485.44;5002482;28;20202;-71
2021/11/14 09:51:59;;;;;;;65.25;29.95;;;;;;;10.85;66.69;100490.50;5002329;28;20038;-69
2021/11/14 09:54:27;;;;;;;66.40;29.67;;;;;;;10.87;66.94;100488.53;5001524;28;20038;-71
2021/11/14 09:56:54;;;;;;;66.60;28.67;;;;;;;11.01;66.46;100482.75;5002304;28;20239;-68
2021/11/14 09:59:20;;;;;;;55.35;27.20;;;;;;;10.98;66.04;100487.50;5002274;28;20273;-71
2021/11/14 10:01:48;;;;;;;55.08;26.25;;;;;;;11.07;65.94;100486.63;5002551;28;20054;-68
2021/11/14 10:04:14;;;;;;;50.95;26.38;;;;;;;11.13;65.58;100484.22;5002179;28;20049;-67
2021/11/14 10:06:39;;;;;;;55.15;26.63;;;;;;;10.96;66.00;100476.22;5002171;28;20037;-71
2021/11/14 10:09:06;;;;;;;47.65;22.95;;;;;;;10.90;66.43;100479.47;5002054;28;20101;-71
2021/11/14 10:11:41;;;;;;;55.60;25.20;;;;;;;11.00;66.55;100482.91;5001283;28;20320;-68
2021/11/14 10:14:08;;;;;;;49.88;24.15;;;;;;;10.95;66.28;100467.44;5002623;28;20046;-68
2021/11/14 10:16:35;;;;;;;45.17;23.17;;;;;;;11.18;65.57;100468.72;5002347;28;20033;-68
2021/11/14 10:19:10;;;;;;;55.88;26.13;;;;;;;11.32;65.36;100466.53;5001999;28;20209;-71
2021/11/14 10:21:36;;;;;;;53.10;25.23;;;;;;;11.43;64.86;100474.28;5002012;28;20241;-71
2021/11/14 10:24:04;;;;;;;53.80;26.40;;;;;;;11.48;64.31;100464.94;5002020;28;20041;-71
2021/11/14 10:26:31;;;;;;;46.22;25.02;;;;;;;11.61;64.03;100458.41;5002068;28;20097;-71
2021/11/14 10:29:00;;;;;;;49.03;25.02;;;;;;;11.37;64.15;100465.09;5000753;28;20042;-70
2021/11/14 10:31:27;;;;;;;46.85;22.50;;;;;;;11.32;64.81;100459.41;4992937;28;20042;-68
2021/11/14 10:33:53;;;;;;;50.85;24.38;;;;;;;11.44;63.80;100454.75;4991482;28;20034;-71
2021/11/14 10:36:20;;;;;;;53.92;25.45;;;;;;;11.37;64.48;100457.16;4995889;28;20041;-70
2021/11/14 10:38:45;;;;;;;53.13;26.70;;;;;;;11.47;63.44;100462.44;4990835;28;20030;-68
2021/11/14 10:41:12;;;;;;;49.85;25.70;;;;;;;11.38;63.67;100456.16;4990773;28;20288;-72
2021/11/14 10:43:39;;;;;;;58.08;28.40;;;;;;;11.40;64.71;100456.03;4992571;28;20022;-71
2021/11/14 10:46:17;;;;;;;52.40;26.20;;;;;;;11.43;64.72;100445.94;4991560;28;20030;-67
2021/11/14 10:48:42;;;;;;;54.25;25.27;;;;;;;11.45;63.96;100448.47;4988786;28;20237;-71
2021/11/14 10:51:11;;;;;;;59.63;27.00;;;;;;;11.60;64.43;100448.78;4992221;28;20037;-70
2021/11/14 10:53:38;;;;;;;56.80;27.75;;;;;;;11.45;64.16;100445.84;4993615;28;20105;-71
2021/11/14 10:56:10;;;;;;;56.78;27.25;;;;;;;11.45;64.61;100441.34;4989019;28;20086;-72
2021/11/14 10:58:36;;;;;;;57.80;28.95;;;;;;;11.44;63.81;100447.66;4991845;28;20209;-71
2021/11/14 11:01:08;;;;;;;53.30;26.10;;;;;;;11.52;63.75;100452.19;4991293;28;20057;-71
2021/11/14 11:03:43;;;;;;;61.65;30.08;;;;;;;11.52;64.16;100444.25;4990769;28;20041;-68
2021/11/14 11:06:16;;;;;;;60.28;28.30;;;;;;;11.46;64.81;100442.19;4990117;28;20073;-68
2021/11/14 11:08:44;;;;;;;57.25;27.05;;;;;;;11.57;64.27;100447.28;4995205;28;20041;-68